Time;durP1;ratioP1;P1;durP2;ratioP2;P2;SDS_P1;SDS_P2;PMS_P1;PMS_P2;Temp;Humidity;BMP_temperature;BMP_pressure;BME280_temperature;BME280_humidity;BME280_pressure;Samples;Min_cycle;Max_cycle;Signal;HPM_P1;HPM_P2
2022/06/04 00:01:31;;;;;;;52.83;23.63;;;;;;;20.29;69.68;95406.00;5071123;28;20029;-78
2022/06/04 00:03:56;;;;;;;54.53;24.27;;;;;;;20.28;69.85;95401.78;5040228;28;20037;-80
2022/06/04 00:06:22;;;;;;;45.33;22.73;;;;;;;20.26;69.87;95398.63;5039473;28;20033;-79
2022/06/04 00:08:47;;;;;;;38.05;17.45;;;;;;;20.23;69.98;95404.47;5047985;22;20068;-79
2022/06/04 00:16:32;;;;;;;40.30;16.55;;;;;;;20.17;70.21;95399.50;5056979;28;20100;-79
2022/06/04 00:18:57;;;;;;;60.20;25.42;;;;;;;20.11;70.35;95401.41;5023009;28;20033;-79
2022/06/04 00:21:29;;;;;;;56.58;23.98;;;;;;;20.06;70.13;95398.81;5057681;28;20041;-79
2022/06/04 00:23:54;;;;;;;59.95;28.33;;;;;;;20.03;70.38;95396.75;5057685;28;20497;-78
2022/06/04 00:26:20;;;;;;;45.30;23.50;;;;;;;20.01;70.68;95391.75;5024549;28;20051;-79
2022/06/04 00:28:46;;;;;;;43.42;22.05;;;;;;;19.99;70.96;95393.06;5041274;28;20033;-78
2022/06/04 00:31:11;;;;;;;33.70;16.52;;;;;;;19.99;71.17;95398.34;5056173;28;20116;-78
2022/06/04 00:33:37;;;;;;;36.88;19.10;;;;;;;19.98;70.83;95399.41;5029787;28;20030;-79
2022/06/04 00:36:03;;;;;;;37.60;20.63;;;;;;;19.96;70.92;95398.88;5041617;28;20040;-79
2022/06/04 00:38:29;;;;;;;52.85;22.75;;;;;;;19.94;70.97;95395.75;5024978;28;20431;-79
2022/06/04 00:41:02;;;;;;;36.13;19.42;;;;;;;19.92;71.03;95388.09;5032414;28;20048;-80
2022/06/04 00:43:27;;;;;;;44.92;19.25;;;;;;;19.87;71.15;95390.00;5039483;28;20132;-80
2022/06/04 00:46:30;;;;;;;28.42;17.13;;;;;;;19.86;71.15;95385.78;5039922;28;20024;-80
2022/06/04 00:48:56;;;;;;;22.95;13.95;;;;;;;19.81;71.03;95375.25;5055142;28;20061;-79
2022/06/04 00:51:23;;;;;;;22.30;13.77;;;;;;;19.76;70.93;95368.97;5022476;28;20111;-81
2022/06/04 00:53:49;;;;;;;28.08;13.70;;;;;;;19.74;70.81;95380.84;5018235;28;20058;-78
2022/06/04 00:56:38;;;;;;;26.50;15.23;;;;;;;19.73;71.00;95374.78;5018246;28;20045;-79
2022/06/04 00:59:33;;;;;;;35.97;16.35;;;;;;;19.70;70.68;95367.44;5005470;28;20033;-79
2022/06/04 01:02:13;;;;;;;27.90;15.07;;;;;;;19.64;71.14;95373.78;5018429;28;20128;-79
2022/06/04 01:04:48;;;;;;;30.27;15.55;;;;;;;19.62;70.99;95360.09;5020314;28;20884;-79
2022/06/04 01:07:35;;;;;;;36.08;14.90;;;;;;;19.59;71.18;95360.63;5048604;23;20037;-78
2022/06/04 01:10:38;;;;;;;33.47;17.48;;;;;;;19.57;71.19;95354.84;5036976;28;20029;-80
2022/06/04 01:13:04;;;;;;;41.17;18.27;;;;;;;19.54;71.21;95360.69;5053772;28;20094;-79
2022/06/04 01:15:51;;;;;;;28.98;16.67;;;;;;;19.50;71.18;95359.59;5106601;22;20195;-80
2022/06/04 01:18:17;;;;;;;38.58;20.08;;;;;;;19.45;71.10;95368.34;5026736;28;20578;-80
2022/06/04 01:21:13;;;;;;;31.77;17.73;;;;;;;19.45;71.04;95367.56;5028115;28;20066;-79
2022/06/04 01:24:10;;;;;;;36.42;18.05;;;;;;;19.42;71.44;95368.91;5025565;28;20048;-80
2022/06/04 01:27:08;;;;;;;46.45;21.10;;;;;;;19.40;71.70;95354.41;4992962;28;20056;-79
2022/06/04 01:29:45;;;;;;;47.42;22.25;;;;;;;19.35;71.65;95347.31;5024516;28;20030;-79
2022/06/04 01:34:42;;;;;;;48.05;21.88;;;;;;;19.38;71.54;95346.00;5062965;22;20045;-80
2022/06/04 01:42:29;;;;;;;42.13;20.65;;;;;;;19.28;71.49;95343.41;5562693;22;20362;-78
2022/06/04 01:44:55;;;;;;;51.42;22.30;;;;;;;19.27;71.74;95355.00;5045097;28;20041;-79
2022/06/04 01:47:20;;;;;;;44.58;21.73;;;;;;;19.25;71.10;95352.66;5012798;28;20068;-78
2022/06/04 01:49:49;;;;;;;45.65;24.17;;;;;;;19.22;71.31;95357.69;5029355;28;20029;-78
2022/06/04 01:52:16;;;;;;;55.45;26.73;;;;;;;19.16;70.90;95355.06;5046577;28;20045;-78
2022/06/04 01:54:54;;;;;;;65.18;29.35;;;;;;;19.14;71.46;95357.19;5032145;28;20044;-79
2022/06/04 01:57:34;;;;;;;67.50;30.42;;;;;;;19.13;71.47;95368.78;5017099;28;20013;-77
2022/06/04 02:00:05;;;;;;;63.55;26.02;;;;;;;19.12;71.65;95369.84;5015921;28;20038;-78
2022/06/04 02:02:36;;;;;;;45.28;17.90;;;;;;;19.12;72.82;95390.16;5008500;28;20108;-78
2022/06/04 02:05:03;;;;;;;27.67;15.55;;;;;;;19.12;73.08;95396.22;5031608;28;20033;-78
2022/06/04 02:07:33;;;;;;;24.92;13.93;;;;;;;19.11;73.04;95399.91;5032462;28;20041;-79
2022/06/04 02:10:01;;;;;;;21.38;12.35;;;;;;;19.12;73.29;95390.94;5015669;28;20049;-77
2022/06/04 02:12:28;;;;;;;21.55;12.75;;;;;;;19.12;73.58;95388.31;5031869;28;20034;-78
2022/06/04 02:14:53;;;;;;;15.60;12.05;;;;;;;19.14;73.95;95393.31;5047373;28;20061;-77
2022/06/04 02:17:23;;;;;;;23.55;12.50;;;;;;;19.16;74.01;95402.53;5031765;28;20036;-78
2022/06/04 02:19:49;;;;;;;22.75;12.95;;;;;;;19.21;74.22;95398.31;5025851;28;20029;-79
2022/06/04 02:22:14;;;;;;;18.60;13.73;;;;;;;19.23;73.94;95409.34;5023049;28;20075;-79
2022/06/04 02:24:39;;;;;;;28.50;14.07;;;;;;;19.22;73.60;95413.06;4986004;28;20032;-79
2022/06/04 02:27:06;;;;;;;26.38;13.50;;;;;;;19.24;73.09;95418.84;5022942;28;20060;-79
2022/06/04 02:29:35;;;;;;;29.67;14.60;;;;;;;19.25;72.92;95415.16;5021975;28;20412;-79
2022/06/04 02:32:13;;;;;;;22.30;13.77;;;;;;;19.22;73.10;95415.69;5006235;28;20041;-79
2022/06/04 02:34:41;;;;;;;23.25;13.32;;;;;;;19.23;72.96;95412.78;5005664;28;20033;-79
2022/06/04 02:37:21;;;;;;;31.42;14.32;;;;;;;19.19;72.72;95415.16;5023014;28;20045;-78
2022/06/04 02:39:49;;;;;;;28.45;13.60;;;;;;;19.21;72.79;95408.84;5005590;28;20583;-79
2022/06/04 02:42:21;;;;;;;21.23;14.30;;;;;;;19.18;72.58;95416.22;5037993;28;20045;-79
2022/06/04 02:44:51;;;;;;;28.10;14.20;;;;;;;19.19;72.60;95401.97;5039068;28;20254;-80
2022/06/04 02:47:26;;;;;;;29.00;14.68;;;;;;;19.19;73.23;95409.88;5020385;28;20065;-80
2022/06/04 02:49:53;;;;;;;33.42;16.98;;;;;;;19.21;72.07;95404.34;5003711;28;20037;-80
2022/06/04 02:52:19;;;;;;;36.30;16.55;;;;;;;19.17;72.00;95404.09;5037533;28;20038;-79
2022/06/04 02:55:00;;;;;;;33.75;15.88;;;;;;;19.17;72.57;95401.44;5021650;28;20044;-79
2022/06/04 02:57:26;;;;;;;45.93;17.03;;;;;;;19.16;72.17;95397.25;5004899;28;20033;-80
2022/06/04 02:59:52;;;;;;;42.15;19.63;;;;;;;19.17;72.10;95403.31;5003075;28;20290;-79
2022/06/04 03:02:17;;;;;;;38.45;16.90;;;;;;;19.13;71.72;95397.78;5003342;28;20079;-79
2022/06/04 03:04:49;;;;;;;32.55;16.75;;;;;;;19.16;71.88;95394.59;5019232;28;20025;-79
2022/06/04 03:07:15;;;;;;;33.30;16.38;;;;;;;19.18;71.88;95389.84;4987404;28;20125;-80
2022/06/04 03:09:40;;;;;;;27.15;16.80;;;;;;;19.23;71.72;95383.78;5019454;28;20133;-80
2022/06/04 03:12:07;;;;;;;26.20;14.25;;;;;;;19.30;72.12;95383.47;5019319;28;20052;-79
2022/06/04 03:14:32;;;;;;;36.65;15.52;;;;;;;19.36;72.53;95380.56;5036456;28;20064;-79
2022/06/04 03:17:01;;;;;;;36.22;16.55;;;;;;;19.48;71.84;95374.91;5004025;28;20037;-79
2022/06/04 03:19:26;;;;;;;54.78;32.13;;;;;;;19.55;70.58;95378.09;5005727;28;20584;-80
2022/06/04 03:21:52;;;;;;;69.30;37.85;;;;;;;19.64;69.66;95378.28;5023108;28;20515;-79
2022/06/04 03:24:17;;;;;;;61.55;37.95;;;;;;;19.70;69.02;95375.34;5019772;28;20090;-80
2022/06/04 03:26:42;;;;;;;61.13;36.38;;;;;;;19.79;68.43;95373.69;4988868;28;20030;-79
2022/06/04 03:29:08;;;;;;;54.53;34.25;;;;;;;19.84;68.03;95375.47;5022353;28;20098;-79
2022/06/04 03:31:34;;;;;;;50.80;31.40;;;;;;;19.89;67.67;95372.03;5004091;28;20029;-79
2022/06/04 03:33:59;;;;;;;62.70;30.50;;;;;;;19.94;67.19;95369.34;5039960;28;20029;-79
2022/06/04 03:36:28;;;;;;;65.57;29.10;;;;;;;19.99;66.42;95375.34;5038498;28;20026;-79
2022/06/04 03:38:57;;;;;;;60.42;27.40;;;;;;;20.09;66.56;95377.94;5038432;28;20087;-78
2022/06/04 03:41:22;;;;;;;56.30;26.15;;;;;;;20.17;65.95;95368.59;5003890;28;20037;-79
2022/06/04 03:43:51;;;;;;;71.80;27.95;;;;;;;20.28;65.65;95369.31;5037891;28;20024;-79
2022/06/04 03:46:18;;;;;;;64.72;27.25;;;;;;;20.34;65.45;95371.63;5026942;22;20053;-78
2022/06/04 03:48:44;;;;;;;51.58;25.45;;;;;;;20.46;65.18;95379.19;5042324;22;20041;-78
2022/06/04 03:51:09;;;;;;;59.30;25.85;;;;;;;20.56;65.13;95376.44;5045882;28;20443;-78
2022/06/04 03:53:35;;;;;;;86.70;26.85;;;;;;;20.65;64.62;95376.59;5040248;28;20041;-80
2022/06/04 03:56:00;;;;;;;58.15;24.80;;;;;;;20.76;64.69;95379.94;5047120;28;20029;-78
2022/06/04 03:58:30;;;;;;;52.95;22.05;;;;;;;20.89;64.32;95382.69;5049567;28;20036;-78
2022/06/04 04:00:56;;;;;;;53.15;19.90;;;;;;;21.24;63.75;95385.97;5047715;28;20032;-78
2022/06/04 04:03:21;;;;;;;42.28;19.08;;;;;;;22.67;59.94;95380.03;5029175;28;20026;-79
2022/06/04 04:05:54;;;;;;;47.97;18.52;;;;;;;24.58;53.69;95392.31;5039229;28;20025;-79
2022/06/04 04:08:21;;;;;;;39.40;16.67;;;;;;;26.25;48.84;95390.09;5022437;28;20048;-79
2022/06/04 04:13:16;;;;;;;43.28;14.02;;;;;;;29.31;41.75;95394.41;5111446;22;20654;-80
2022/06/04 04:15:44;;;;;;;39.53;15.07;;;;;;;30.59;38.83;95389.94;5006309;28;20033;-81
2022/06/04 04:18:09;;;;;;;34.97;11.57;;;;;;;31.70;36.51;95391.41;5039355;28;20029;-78
2022/06/04 04:20:36;;;;;;;25.48;9.95;;;;;;;32.91;34.46;95390.25;5040207;28;20036;-79
2022/06/04 04:23:02;;;;;;;16.55;8.32;;;;;;;33.98;32.88;95396.03;5036092;28;20025;-79
2022/06/04 04:25:28;;;;;;;23.27;8.48;;;;;;;34.99;30.89;95387.84;5003867;28;20079;-79
2022/06/04 04:27:55;;;;;;;14.90;8.02;;;;;;;35.88;29.38;95401.16;5020354;28;20040;-79
2022/06/04 04:30:22;;;;;;;17.77;7.93;;;;;;;36.56;27.93;95404.88;5019999;28;20096;-79
2022/06/04 04:32:48;;;;;;;29.55;7.63;;;;;;;37.18;27.57;95410.75;5020095;28;20064;-79
2022/06/04 04:35:16;;;;;;;19.70;7.50;;;;;;;37.89;26.27;95418.00;5036667;28;20084;-79
2022/06/04 04:37:42;;;;;;;14.32;7.10;;;;;;;38.87;24.92;95415.19;5041266;23;20045;-80
2022/06/04 04:40:08;;;;;;;15.98;6.90;;;;;;;39.37;24.00;95414.81;5017821;28;20112;-80
2022/06/04 04:42:34;;;;;;;14.55;7.00;;;;;;;39.82;23.46;95418.25;5060664;23;20504;-80
2022/06/04 04:45:00;;;;;;;21.10;7.10;;;;;;;40.30;22.23;95425.50;5058940;28;20037;-79
2022/06/04 04:47:25;;;;;;;23.52;7.13;;;;;;;40.60;21.96;95427.44;5051699;28;20087;-79
2022/06/04 04:49:51;;;;;;;10.75;6.32;;;;;;;40.55;21.98;95421.69;5049050;28;20082;-79
2022/06/04 04:52:16;;;;;;;15.60;6.28;;;;;;;40.10;22.46;95432.75;5038560;28;20044;-79
2022/06/04 04:54:42;;;;;;;12.18;6.63;;;;;;;40.18;22.27;95434.22;5048055;28;20104;-79
2022/06/04 04:57:08;;;;;;;9.35;6.05;;;;;;;40.25;22.36;95428.69;5038261;28;20029;-79
2022/06/04 04:59:33;;;;;;;35.75;6.40;;;;;;;40.41;22.62;95436.28;5037548;28;20034;-79
2022/06/04 05:01:59;;;;;;;21.25;7.88;;;;;;;40.61;22.06;95434.44;5048661;28;20026;-79
2022/06/04 05:04:24;;;;;;;13.48;6.47;;;;;;;40.77;21.55;95425.66;5017915;28;20094;-79
2022/06/04 05:06:50;;;;;;;28.25;7.25;;;;;;;41.29;20.75;95426.03;5018988;28;20040;-79
2022/06/04 05:09:15;;;;;;;20.85;6.82;;;;;;;41.50;20.37;95424.91;5020452;28;20028;-79
2022/06/04 05:11:44;;;;;;;18.08;6.57;;;;;;;41.70;20.22;95432.38;5043622;28;20025;-80
2022/06/04 05:14:10;;;;;;;16.45;6.20;;;;;;;42.07;19.82;95432.03;5017572;28;20110;-79
2022/06/04 05:16:39;;;;;;;14.32;6.88;;;;;;;42.51;19.57;95432.72;5019259;28;20029;-84
2022/06/04 05:19:28;;;;;;;13.48;6.57;;;;;;;42.73;19.25;95433.00;5019335;28;20036;-79
2022/06/04 05:22:41;;;;;;;16.08;6.63;;;;;;;42.43;19.25;95431.31;5042661;28;20049;-80
2022/06/04 05:25:44;;;;;;;14.75;6.57;;;;;;;41.42;20.92;95439.09;5046177;28;20102;-79
2022/06/04 05:28:12;;;;;;;14.10;6.85;;;;;;;41.30;20.75;95440.44;5033753;28;20411;-79
2022/06/04 05:30:37;;;;;;;24.20;7.55;;;;;;;41.07;21.21;95438.47;5002483;28;20120;-80
2022/06/04 05:33:03;;;;;;;19.75;6.88;;;;;;;41.14;20.88;95426.66;5021215;28;20411;-80
2022/06/04 05:35:28;;;;;;;20.38;6.88;;;;;;;41.29;20.73;95430.72;5025082;28;20033;-80
2022/06/04 05:37:54;;;;;;;11.88;6.93;;;;;;;41.42;20.59;95433.63;5048793;28;20036;-81
2022/06/04 05:40:20;;;;;;;22.20;7.35;;;;;;;41.75;20.20;95426.41;5038760;28;20029;-80
2022/06/04 05:42:45;;;;;;;13.32;6.80;;;;;;;42.04;19.75;95435.59;5036921;28;20551;-81
2022/06/04 05:45:11;;;;;;;17.63;6.30;;;;;;;42.22;20.13;95443.47;5039405;28;20430;-80
2022/06/04 05:47:36;;;;;;;20.90;6.90;;;;;;;42.66;19.85;95444.91;5023979;28;20032;-80
2022/06/04 05:50:02;;;;;;;6.78;6.15;;;;;;;43.02;19.25;95444.88;5049702;28;20093;-80
2022/06/04 05:52:28;;;;;;;13.52;6.13;;;;;;;43.27;18.52;95444.25;5023180;28;20051;-81
2022/06/04 05:54:53;;;;;;;15.70;6.10;;;;;;;43.41;18.96;95443.16;5035997;28;20029;-80
2022/06/04 05:57:19;;;;;;;18.02;6.22;;;;;;;43.60;18.85;95438.75;5043865;28;20040;-80
2022/06/04 05:59:45;;;;;;;15.20;6.30;;;;;;;43.84;18.84;95442.06;5013904;28;20040;-80
2022/06/04 06:02:11;;;;;;;14.55;5.60;;;;;;;43.99;18.32;95438.50;5047626;28;20039;-80
2022/06/04 06:04:36;;;;;;;9.52;5.28;;;;;;;43.86;18.59;95436.91;5046976;28;20041;-81
2022/06/04 06:07:02;;;;;;;12.30;4.75;;;;;;;44.08;18.82;95428.84;5049576;28;20037;-80
2022/06/04 06:09:27;;;;;;;14.88;6.13;;;;;;;44.32;18.32;95432.91;5039757;28;20065;-81
2022/06/04 06:11:53;;;;;;;11.05;5.53;;;;;;;44.34;17.76;95435.19;5022925;28;20061;-79
2022/06/04 06:14:19;;;;;;;13.40;5.13;;;;;;;44.23;18.20;95430.00;5041107;28;20434;-80
2022/06/04 06:16:46;;;;;;;12.02;5.32;;;;;;;44.37;17.76;95429.59;5037899;28;20043;-79
2022/06/04 06:19:12;;;;;;;7.55;4.68;;;;;;;43.68;18.42;95434.63;5038755;28;20484;-79
2022/06/04 06:21:38;;;;;;;13.95;5.25;;;;;;;42.49;20.09;95433.16;5054345;28;20037;-80
2022/06/04 06:24:05;;;;;;;14.32;5.68;;;;;;;41.19;21.29;95418.00;5041494;28;20065;-79
2022/06/04 06:26:32;;;;;;;23.60;6.65;;;;;;;40.40;22.35;95424.63;5021814;28;20040;-80
2022/06/04 06:29:00;;;;;;;21.90;5.88;;;;;;;40.40;22.15;95412.94;5022100;28;20033;-80
2022/06/04 06:31:26;;;;;;;18.85;6.07;;;;;;;40.95;21.94;95409.81;5022791;28;20029;-80
2022/06/04 06:33:52;;;;;;;15.10;5.25;;;;;;;41.50;21.06;95411.25;5021399;28;20040;-79
2022/06/04 06:36:19;;;;;;;12.77;5.88;;;;;;;42.07;20.03;95415.63;5046717;28;20044;-80
2022/06/04 06:38:45;;;;;;;16.40;5.95;;;;;;;42.47;19.56;95410.91;5037240;28;20037;-81
2022/06/04 06:41:12;;;;;;;15.07;6.20;;;;;;;42.94;19.18;95409.88;5038473;28;20494;-80
2022/06/04 06:43:55;;;;;;;19.17;6.03;;;;;;;43.54;18.90;95402.13;5039050;28;20033;-81
2022/06/04 06:46:36;;;;;;;13.95;6.18;;;;;;;44.02;17.99;95399.25;5037811;28;20033;-80
2022/06/04 06:49:22;;;;;;;21.00;5.68;;;;;;;44.48;17.74;95386.22;5021121;28;20053;-81
2022/06/04 06:51:49;;;;;;;17.08;7.78;;;;;;;44.90;17.14;95395.06;5035815;28;20071;-80
2022/06/04 06:54:15;;;;;;;11.55;6.15;;;;;;;44.82;17.92;95393.00;5035617;28;20041;-79
2022/06/04 06:56:42;;;;;;;14.60;6.85;;;;;;;44.98;16.85;95384.66;5042504;28;20033;-81
2022/06/04 06:59:07;;;;;;;22.02;5.97;;;;;;;44.86;16.97;95382.66;5018006;28;20114;-80
2022/06/04 07:01:34;;;;;;;11.25;6.38;;;;;;;44.15;17.33;95385.59;5016715;28;20029;-82
2022/06/04 07:04:01;;;;;;;14.35;5.78;;;;;;;44.15;17.68;95373.88;5032159;28;20118;-78
2022/06/04 07:06:41;;;;;;;9.00;5.63;;;;;;;43.00;18.47;95372.59;5032777;28;20102;-77
2022/06/04 07:09:11;;;;;;;19.60;6.20;;;;;;;42.61;19.09;95377.00;5042830;28;20037;-79
2022/06/04 07:11:37;;;;;;;18.20;6.53;;;;;;;42.37;19.21;95367.41;5014570;28;20469;-78
2022/06/04 07:14:02;;;;;;;11.68;6.05;;;;;;;42.17;19.57;95370.94;5033098;28;20025;-79
2022/06/04 07:16:28;;;;;;;23.55;6.90;;;;;;;41.82;20.22;95369.69;5042559;28;20397;-79
2022/06/04 07:18:53;;;;;;;18.15;6.93;;;;;;;41.41;20.52;95364.59;5015731;28;20025;-78
2022/06/04 07:21:19;;;;;;;15.05;6.38;;;;;;;40.74;21.21;95361.03;5045209;28;20041;-78
2022/06/04 07:23:45;;;;;;;13.02;6.85;;;;;;;40.41;21.94;95359.97;5043576;28;20047;-79
2022/06/04 07:26:12;;;;;;;23.35;7.75;;;;;;;39.79;22.07;95356.44;5035586;28;20056;-78
2022/06/04 07:28:38;;;;;;;28.98;6.68;;;;;;;39.59;22.53;95360.97;5038385;28;20061;-80
2022/06/04 07:31:05;;;;;;;18.45;7.25;;;;;;;38.71;23.16;95355.91;5045882;28;20025;-80
2022/06/04 07:33:31;;;;;;;13.57;6.18;;;;;;;38.43;23.86;95347.94;5018875;28;20079;-81
2022/06/04 07:35:56;;;;;;;11.10;6.07;;;;;;;38.50;24.42;95347.88;5000843;28;20489;-81
2022/06/04 07:38:22;;;;;;;21.67;6.82;;;;;;;38.02;24.67;95345.03;5016484;28;20071;-80
2022/06/04 07:40:48;;;;;;;17.30;6.97;;;;;;;37.77;24.93;95337.03;5031470;28;20037;-81
2022/06/04 07:43:13;;;;;;;17.50;6.65;;;;;;;37.41;25.45;95345.25;5030664;28;20459;-80
2022/06/04 07:45:39;;;;;;;16.73;6.03;;;;;;;36.94;24.99;95333.69;5033650;28;20061;-80
2022/06/04 07:48:05;;;;;;;10.25;5.53;;;;;;;36.82;25.60;95334.09;5015466;28;20350;-81
2022/06/04 07:50:31;;;;;;;17.27;6.05;;;;;;;36.18;26.31;95330.50;5031608;28;20121;-81
2022/06/04 07:52:57;;;;;;;13.60;5.57;;;;;;;35.82;26.98;95329.59;4999041;28;20037;-81
2022/06/04 07:55:23;;;;;;;15.05;5.22;;;;;;;35.72;27.65;95331.09;5042272;28;20095;-81
2022/06/04 07:57:48;;;;;;;24.00;7.05;;;;;;;35.45;28.15;95328.66;5031050;28;20025;-81
2022/06/04 08:00:14;;;;;;;14.27;6.63;;;;;;;34.95;28.71;95330.25;5029203;28;20040;-81
2022/06/04 08:02:42;;;;;;;21.75;6.60;;;;;;;34.45;29.91;95327.13;5033443;28;20035;-80
2022/06/04 08:05:10;;;;;;;10.10;6.55;;;;;;;34.01;30.02;95319.75;5042633;28;20029;-79
2022/06/04 08:07:37;;;;;;;14.77;6.40;;;;;;;33.72;30.63;95317.84;5019084;28;20036;-79
2022/06/04 08:10:03;;;;;;;25.55;7.30;;;;;;;33.61;31.42;95317.72;5039643;28;20028;-80
2022/06/04 08:12:35;;;;;;;19.90;6.50;;;;;;;33.58;31.39;95312.28;5047064;28;20021;-81
2022/06/04 08:15:02;;;;;;;18.67;6.15;;;;;;;33.59;31.00;95311.16;5035987;28;20037;-82
2022/06/04 08:17:30;;;;;;;15.18;6.53;;;;;;;33.37;31.22;95312.81;5020391;28;20781;-81
2022/06/04 08:20:02;;;;;;;11.70;6.13;;;;;;;33.21;31.37;95315.66;5004162;28;20449;-82
2022/06/04 08:22:28;;;;;;;18.83;6.93;;;;;;;32.76;32.26;95311.88;5038833;28;20056;-82
2022/06/04 08:24:53;;;;;;;23.38;6.40;;;;;;;32.89;31.98;95309.03;5043934;28;20032;-82
2022/06/04 08:27:18;;;;;;;12.70;5.30;;;;;;;32.70;31.78;95297.16;5045549;28;20041;-82
2022/06/04 08:29:44;;;;;;;18.30;6.60;;;;;;;32.54;32.80;95299.22;5016769;28;20025;-82
2022/06/04 08:32:10;;;;;;;21.33;6.20;;;;;;;32.59;33.22;95300.84;5027270;28;20516;-83
2022/06/04 08:34:35;;;;;;;13.38;6.60;;;;;;;32.51;32.78;95291.84;5020161;28;20040;-81
2022/06/04 08:37:01;;;;;;;12.23;5.45;;;;;;;32.44;32.86;95294.44;5036013;28;20029;-82
2022/06/04 08:39:27;;;;;;;16.23;5.53;;;;;;;32.12;32.92;95297.34;5002645;28;20021;-82
2022/06/04 08:42:03;;;;;;;8.35;5.07;;;;;;;31.92;32.47;95291.22;5045765;28;20085;-82
2022/06/04 08:45:02;;;;;;;9.45;4.72;;;;;;;31.89;32.23;95285.75;5036541;28;20499;-82
2022/06/04 08:47:34;;;;;;;11.93;4.90;;;;;;;31.76;32.60;95281.69;5017966;28;20045;-83
2022/06/04 08:50:09;;;;;;;23.40;5.38;;;;;;;31.71;32.33;95284.63;5033632;28;20032;-83
2022/06/04 08:52:52;;;;;;;16.23;4.88;;;;;;;31.66;31.72;95286.47;5044882;28;20048;-87
2022/06/04 08:58:31;;;;;;;9.55;3.90;;;;;;;30.69;33.07;95274.03;5040356;28;20040;-79
2022/06/04 09:01:28;;;;;;;16.85;4.15;;;;;;;30.63;33.14;95276.19;5031433;28;20053;-79
2022/06/04 09:03:58;;;;;;;10.13;3.80;;;;;;;30.85;31.01;95288.19;5038137;28;20041;-78
2022/06/04 09:09:15;;;;;;;10.23;3.90;;;;;;;30.82;31.28;95283.53;5354063;22;20071;-78
2022/06/04 09:11:49;;;;;;;12.55;3.70;;;;;;;30.86;31.54;95289.75;5048031;28;20072;-78
2022/06/04 09:14:14;;;;;;;13.20;3.60;;;;;;;31.06;31.33;95282.50;5036591;28;20493;-78
2022/06/04 09:16:41;;;;;;;13.07;4.30;;;;;;;31.13;31.90;95288.06;5041294;28;20025;-78
2022/06/04 09:19:18;;;;;;;7.05;3.35;;;;;;;31.18;30.15;95279.75;5021246;28;20037;-78
2022/06/04 09:21:44;;;;;;;12.88;3.80;;;;;;;31.33;30.37;95286.19;5035906;28;20029;-78
2022/06/04 09:24:09;;;;;;;7.13;3.83;;;;;;;31.22;31.87;95282.50;5021928;28;20087;-76
2022/06/04 09:26:51;;;;;;;9.35;4.07;;;;;;;30.94;32.71;95286.13;5012600;28;20563;-76
2022/06/04 09:29:19;;;;;;;;;;;;;;;31.00;33.16;95287.38;5035187;28;20137;-76
2022/06/04 09:32:03;;;;;;;16.20;3.83;;;;;;;31.09;33.87;95284.53;5039169;28;19917;-76
2022/06/04 09:34:28;;;;;;;11.60;3.90;;;;;;;31.32;33.19;95290.78;5027736;28;20093;-76
2022/06/04 09:36:54;;;;;;;10.70;3.88;;;;;;;31.25;31.35;95289.88;5027540;28;20128;-76
2022/06/04 09:39:30;;;;;;;13.05;4.47;;;;;;;31.27;31.52;95293.75;5031373;28;20521;-76
2022/06/04 09:42:01;;;;;;;10.00;4.53;;;;;;;31.39;31.48;95284.00;5014791;28;20390;-76
2022/06/04 09:44:28;;;;;;;8.13;3.88;;;;;;;31.57;30.68;95295.91;5033990;28;20045;-77
2022/06/04 09:47:01;;;;;;;7.55;3.67;;;;;;;31.76;30.70;95292.44;5032685;28;20106;-76
2022/06/04 09:49:50;;;;;;;10.15;3.92;;;;;;;31.90;30.53;95293.50;5034234;28;20106;-76
2022/06/04 09:52:38;;;;;;;14.30;4.47;;;;;;;32.12;30.65;95288.50;5026125;28;20420;-78
2022/06/04 09:55:22;;;;;;;15.50;4.55;;;;;;;32.27;31.57;95284.13;5041036;28;20037;-76
2022/06/04 09:58:07;;;;;;;14.60;4.75;;;;;;;32.42;31.26;95278.66;5045973;28;20037;-76
2022/06/04 10:00:36;;;;;;;17.02;4.38;;;;;;;32.68;31.10;95283.28;5038660;28;20025;-80
2022/06/04 10:03:12;;;;;;;10.23;4.13;;;;;;;32.83;31.29;95274.31;5576422;23;20120;-77
2022/06/04 10:05:51;;;;;;;14.63;4.47;;;;;;;32.88;32.07;95275.16;4999435;28;20109;-77
2022/06/04 10:08:21;;;;;;;19.42;4.80;;;;;;;32.91;31.08;95263.66;4988545;28;20041;-77
2022/06/04 10:10:46;;;;;;;23.13;4.40;;;;;;;32.96;30.85;95269.47;4972500;28;20027;-77
2022/06/04 10:16:42;;;;;;;10.65;4.10;;;;;;;33.09;31.63;95256.56;4991461;28;20512;-78
2022/06/04 10:19:19;;;;;;;8.10;4.38;;;;;;;33.14;32.81;95261.63;4988427;28;20498;-78
2022/06/04 10:21:49;;;;;;;11.10;4.85;;;;;;;33.12;31.51;95253.91;4975569;28;20050;-78
2022/06/04 10:24:23;;;;;;;12.65;5.35;;;;;;;33.18;31.22;95257.06;4974878;28;20030;-78
2022/06/04 10:27:03;;;;;;;15.60;4.85;;;;;;;33.22;31.88;95265.22;4975129;28;20033;-78
2022/06/04 10:29:43;;;;;;;18.85;5.18;;;;;;;33.17;31.43;95254.72;5008368;28;20464;-77
2022/06/04 10:32:12;;;;;;;10.30;5.45;;;;;;;33.16;31.86;95253.97;4991076;28;20062;-77
2022/06/04 10:34:56;;;;;;;33.63;5.85;;;;;;;33.09;30.96;95243.09;4991513;28;20034;-77
2022/06/04 10:37:45;;;;;;;23.25;4.65;;;;;;;32.88;31.64;95237.44;5028358;22;20135;-77
2022/06/04 10:40:48;;;;;;;19.10;5.03;;;;;;;32.72;33.09;95237.56;5040201;28;20425;-77
2022/06/04 10:43:24;;;;;;;10.70;4.70;;;;;;;32.57;32.99;95233.88;5021746;28;20026;-78
2022/06/04 10:46:06;;;;;;;10.73;4.40;;;;;;;32.42;32.67;95232.13;5002545;28;20029;-79
2022/06/04 10:48:40;;;;;;;7.60;5.03;;;;;;;32.19;31.30;95240.94;4989964;28;20509;-78
2022/06/04 10:51:27;;;;;;;18.55;5.38;;;;;;;31.86;32.30;95232.69;5019815;28;20038;-77
2022/06/04 10:53:58;;;;;;;12.57;5.20;;;;;;;31.27;33.89;95233.88;5020200;28;20501;-77
2022/06/04 10:56:27;;;;;;;17.88;5.85;;;;;;;30.99;35.06;95228.66;5021521;28;20049;-78
2022/06/04 10:59:03;;;;;;;28.35;5.55;;;;;;;30.93;34.78;95228.16;4986277;28;20130;-77
2022/06/04 11:01:51;;;;;;;20.65;6.85;;;;;;;30.80;36.55;95220.56;5003963;28;20103;-78
2022/06/04 11:04:25;;;;;;;25.48;6.55;;;;;;;30.71;37.47;95215.38;5003132;28;20091;-77
2022/06/04 11:07:16;;;;;;;24.05;10.27;;;;;;;30.57;37.33;95217.72;5021793;28;20037;-76
2022/06/04 11:09:41;;;;;;;24.65;9.75;;;;;;;30.48;36.43;95210.66;5002818;28;20033;-77
2022/06/04 11:12:16;;;;;;;11.45;5.93;;;;;;;30.39;37.06;95214.63;4995154;28;20060;-77
2022/06/04 11:14:46;;;;;;;15.90;6.00;;;;;;;30.25;37.27;95209.72;5001727;28;20061;-79
2022/06/04 11:17:22;;;;;;;10.93;5.38;;;;;;;30.13;37.27;95199.09;5002886;28;20030;-78
2022/06/04 11:20:09;;;;;;;15.50;5.93;;;;;;;30.09;38.00;95203.56;4973195;28;20029;-78
2022/06/04 11:22:36;;;;;;;14.45;5.80;;;;;;;30.03;38.40;95207.63;5028667;28;20041;-78
2022/06/04 11:25:27;;;;;;;14.98;5.68;;;;;;;30.02;37.94;95198.00;5027738;28;20057;-78
2022/06/04 11:28:03;;;;;;;14.25;6.57;;;;;;;29.93;38.56;95195.50;5012101;28;20037;-78
2022/06/04 11:30:50;;;;;;;21.80;5.70;;;;;;;29.83;38.11;95196.81;5026370;28;20049;-78
2022/06/04 11:33:42;;;;;;;15.23;5.70;;;;;;;29.85;38.94;95194.56;5012509;28;20057;-78
2022/06/04 11:36:14;;;;;;;21.80;5.95;;;;;;;29.91;38.98;95197.75;5003267;28;21795;-78
2022/06/04 11:38:52;;;;;;;18.77;5.72;;;;;;;30.00;38.64;95194.91;5026520;28;20119;-78
2022/06/04 11:42:03;;;;;;;18.83;6.70;;;;;;;30.02;37.49;95192.66;5009484;28;20029;-78
2022/06/04 11:44:55;;;;;;;14.50;6.57;;;;;;;30.12;37.36;95187.59;5020515;28;20608;-79
2022/06/04 11:47:39;;;;;;;10.73;5.72;;;;;;;30.22;38.17;95196.22;5014045;28;20120;-78
2022/06/04 11:50:14;;;;;;;17.48;6.18;;;;;;;30.30;38.97;95193.38;5015182;28;20469;-80
2022/06/04 11:52:53;;;;;;;16.55;6.47;;;;;;;30.41;37.46;95194.38;5006822;28;20037;-87
2022/06/04 11:55:25;;;;;;;15.55;6.53;;;;;;;30.61;36.82;95192.53;5018032;28;20548;-80
2022/06/04 11:57:56;;;;;;;12.80;6.65;;;;;;;30.81;36.43;95190.69;5024887;28;20041;-81
2022/06/04 12:00:31;;;;;;;14.00;6.97;;;;;;;31.01;37.72;95194.16;5025850;28;20033;-80
2022/06/04 12:03:15;;;;;;;10.10;6.55;;;;;;;31.23;37.77;95188.09;5013949;28;20125;-80
2022/06/04 12:05:52;;;;;;;11.57;6.70;;;;;;;31.37;37.04;95182.22;5024656;28;20071;-80
2022/06/04 12:08:20;;;;;;;14.52;7.00;;;;;;;31.48;36.76;95185.91;5011681;28;20072;-79